sensor_id;sensor_type;location;lat;lon;timestamp;P1;durP1;ratioP1;P2;durP2;ratioP2
37203;SDS011;23098;48.054;10.636;2023-11-22T00:00:08;34.83;;;12.98;;
37203;SDS011;23098;48.054;10.636;2023-11-22T00:02:34;25.35;;;12.73;;
37203;SDS011;23098;48.054;10.636;2023-11-22T00:05:00;25.67;;;12.57;;
37203;SDS011;23098;48.054;10.636;2023-11-22T00:07:26;29.67;;;13.48;;
37203;SDS011;23098;48.054;10.636;2023-11-22T00:09:54;29.23;;;12.68;;
37203;SDS011;23098;48.054;10.636;2023-11-22T00:12:21;27.67;;;12.30;;
37203;SDS011;23098;48.054;10.636;2023-11-22T00:14:48;30.52;;;13.13;;
37203;SDS011;23098;48.054;10.636;2023-11-22T00:17:16;28.45;;;12.35;;
37203;SDS011;23098;48.054;10.636;2023-11-22T00:19:48;22.30;;;11.55;;
37203;SDS011;23098;48.054;10.636;2023-11-22T00:22:14;30.27;;;12.70;;
37203;SDS011;23098;48.054;10.636;2023-11-22T00:24:40;28.55;;;12.15;;
37203;SDS011;23098;48.054;10.636;2023-11-22T00:27:06;29.23;;;12.38;;
37203;SDS011;23098;48.054;10.636;2023-11-22T00:29:35;29.00;;;12.73;;
37203;SDS011;23098;48.054;10.636;2023-11-22T00:32:02;28.92;;;12.57;;
37203;SDS011;23098;48.054;10.636;2023-11-22T00:34:30;28.50;;;11.70;;
37203;SDS011;23098;48.054;10.636;2023-11-22T00:36:56;37.67;;;13.25;;
37203;SDS011;23098;48.054;10.636;2023-11-22T00:39:21;33.05;;;12.93;;
37203;SDS011;23098;48.054;10.636;2023-11-22T00:41:47;28.52;;;13.45;;
37203;SDS011;23098;48.054;10.636;2023-11-22T00:44:12;28.23;;;13.05;;
37203;SDS011;23098;48.054;10.636;2023-11-22T00:46:38;31.98;;;13.30;;
37203;SDS011;23098;48.054;10.636;2023-11-22T00:49:04;29.10;;;12.27;;
37203;SDS011;23098;48.054;10.636;2023-11-22T00:51:30;30.15;;;12.93;;
37203;SDS011;23098;48.054;10.636;2023-11-22T00:53:57;31.13;;;13.65;;
37203;SDS011;23098;48.054;10.636;2023-11-22T00:56:23;29.58;;;12.52;;
37203;SDS011;23098;48.054;10.636;2023-11-22T00:58:48;27.17;;;12.80;;
37203;SDS011;23098;48.054;10.636;2023-11-22T01:01:15;28.92;;;12.32;;
37203;SDS011;23098;48.054;10.636;2023-11-22T01:03:42;24.25;;;12.75;;
37203;SDS011;23098;48.054;10.636;2023-11-22T01:06:08;25.30;;;12.10;;
37203;SDS011;23098;48.054;10.636;2023-11-22T01:08:35;31.77;;;12.68;;
37203;SDS011;23098;48.054;10.636;2023-11-22T01:11:02;27.92;;;12.43;;
37203;SDS011;23098;48.054;10.636;2023-11-22T01:13:28;28.85;;;12.82;;
37203;SDS011;23098;48.054;10.636;2023-11-22T01:15:54;23.88;;;11.35;;
37203;SDS011;23098;48.054;10.636;2023-11-22T01:18:20;27.73;;;12.70;;
37203;SDS011;23098;48.054;10.636;2023-11-22T01:20:45;25.42;;;12.43;;
37203;SDS011;23098;48.054;10.636;2023-11-22T01:23:11;32.47;;;13.20;;
37203;SDS011;23098;48.054;10.636;2023-11-22T01:25:36;25.83;;;11.57;;
37203;SDS011;23098;48.054;10.636;2023-11-22T01:28:02;25.33;;;12.27;;
37203;SDS011;23098;48.054;10.636;2023-11-22T01:30:28;25.83;;;12.25;;
37203;SDS011;23098;48.054;10.636;2023-11-22T01:32:54;32.75;;;12.20;;
37203;SDS011;23098;48.054;10.636;2023-11-22T01:35:20;24.85;;;12.23;;
37203;SDS011;23098;48.054;10.636;2023-11-22T01:37:47;21.98;;;10.63;;
37203;SDS011;23098;48.054;10.636;2023-11-22T01:40:14;22.48;;;10.82;;
37203;SDS011;23098;48.054;10.636;2023-11-22T01:42:39;22.23;;;11.80;;
37203;SDS011;23098;48.054;10.636;2023-11-22T01:45:06;24.17;;;12.02;;
37203;SDS011;23098;48.054;10.636;2023-11-22T01:47:34;27.73;;;12.25;;
37203;SDS011;23098;48.054;10.636;2023-11-22T01:50:01;22.52;;;11.23;;
37203;SDS011;23098;48.054;10.636;2023-11-22T01:52:30;22.40;;;10.73;;
37203;SDS011;23098;48.054;10.636;2023-11-22T01:54:57;23.55;;;10.80;;
37203;SDS011;23098;48.054;10.636;2023-11-22T01:57:23;23.98;;;11.02;;
37203;SDS011;23098;48.054;10.636;2023-11-22T01:59:50;24.65;;;11.25;;
37203;SDS011;23098;48.054;10.636;2023-11-22T02:02:15;26.33;;;11.52;;
37203;SDS011;23098;48.054;10.636;2023-11-22T02:04:41;26.67;;;11.52;;
37203;SDS011;23098;48.054;10.636;2023-11-22T02:07:08;28.42;;;11.75;;
37203;SDS011;23098;48.054;10.636;2023-11-22T02:09:35;23.98;;;11.32;;
37203;SDS011;23098;48.054;10.636;2023-11-22T02:12:01;28.25;;;12.40;;
37203;SDS011;23098;48.054;10.636;2023-11-22T02:14:26;25.23;;;11.65;;
37203;SDS011;23098;48.054;10.636;2023-11-22T02:16:52;27.80;;;11.15;;
37203;SDS011;23098;48.054;10.636;2023-11-22T02:19:17;26.48;;;11.13;;
37203;SDS011;23098;48.054;10.636;2023-11-22T02:21:43;29.08;;;11.80;;
37203;SDS011;23098;48.054;10.636;2023-11-22T02:24:10;28.27;;;10.63;;
37203;SDS011;23098;48.054;10.636;2023-11-22T02:26:36;22.15;;;10.57;;
37203;SDS011;23098;48.054;10.636;2023-11-22T02:29:03;25.90;;;11.57;;
37203;SDS011;23098;48.054;10.636;2023-11-22T02:31:31;30.00;;;11.48;;
37203;SDS011;23098;48.054;10.636;2023-11-22T02:33:59;24.60;;;10.73;;
37203;SDS011;23098;48.054;10.636;2023-11-22T02:36:25;29.17;;;11.25;;
37203;SDS011;23098;48.054;10.636;2023-11-22T02:38:51;26.25;;;12.13;;
37203;SDS011;23098;48.054;10.636;2023-11-22T02:41:19;27.08;;;11.43;;
37203;SDS011;23098;48.054;10.636;2023-11-22T02:43:44;26.92;;;11.07;;
37203;SDS011;23098;48.054;10.636;2023-11-22T02:46:11;22.98;;;11.32;;
37203;SDS011;23098;48.054;10.636;2023-11-22T02:48:37;22.10;;;10.75;;
37203;SDS011;23098;48.054;10.636;2023-11-22T02:51:04;23.42;;;11.43;;
37203;SDS011;23098;48.054;10.636;2023-11-22T02:53:31;26.38;;;11.02;;
37203;SDS011;23098;48.054;10.636;2023-11-22T02:56:00;27.67;;;11.25;;
37203;SDS011;23098;48.054;10.636;2023-11-22T02:58:29;22.23;;;9.95;;
37203;SDS011;23098;48.054;10.636;2023-11-22T03:00:55;22.00;;;9.70;;
37203;SDS011;23098;48.054;10.636;2023-11-22T03:03:22;23.45;;;9.50;;
37203;SDS011;23098;48.054;10.636;2023-11-22T03:05:49;22.00;;;9.20;;
37203;SDS011;23098;48.054;10.636;2023-11-22T03:08:18;19.13;;;9.13;;
37203;SDS011;23098;48.054;10.636;2023-11-22T03:10:44;19.05;;;8.82;;
37203;SDS011;23098;48.054;10.636;2023-11-22T03:13:09;7.97;;;4.47;;
37203;SDS011;23098;48.054;10.636;2023-11-22T03:15:35;7.00;;;3.78;;
37203;SDS011;23098;48.054;10.636;2023-11-22T03:18:01;6.70;;;4.03;;
37203;SDS011;23098;48.054;10.636;2023-11-22T03:20:28;5.38;;;3.45;;
37203;SDS011;23098;48.054;10.636;2023-11-22T03:22:53;5.78;;;3.92;;
37203;SDS011;23098;48.054;10.636;2023-11-22T03:25:19;6.03;;;3.83;;
37203;SDS011;23098;48.054;10.636;2023-11-22T03:27:44;6.90;;;4.25;;
37203;SDS011;23098;48.054;10.636;2023-11-22T03:30:12;4.25;;;2.95;;
37203;SDS011;23098;48.054;10.636;2023-11-22T03:32:40;5.40;;;3.80;;
37203;SDS011;23098;48.054;10.636;2023-11-22T03:35:06;6.55;;;4.18;;
37203;SDS011;23098;48.054;10.636;2023-11-22T03:37:33;6.32;;;4.65;;
37203;SDS011;23098;48.054;10.636;2023-11-22T03:39:58;8.07;;;5.22;;
37203;SDS011;23098;48.054;10.636;2023-11-22T03:42:24;7.05;;;4.75;;
37203;SDS011;23098;48.054;10.636;2023-11-22T03:44:51;10.52;;;4.85;;
37203;SDS011;23098;48.054;10.636;2023-11-22T03:47:18;7.80;;;5.28;;
37203;SDS011;23098;48.054;10.636;2023-11-22T03:49:43;7.10;;;4.53;;
37203;SDS011;23098;48.054;10.636;2023-11-22T03:52:12;8.07;;;5.00;;
37203;SDS011;23098;48.054;10.636;2023-11-22T03:54:39;8.68;;;4.25;;
37203;SDS011;23098;48.054;10.636;2023-11-22T03:57:05;7.38;;;4.30;;
37203;SDS011;23098;48.054;10.636;2023-11-22T03:59:30;5.72;;;3.95;;
37203;SDS011;23098;48.054;10.636;2023-11-22T04:01:56;6.03;;;4.20;;
37203;SDS011;23098;48.054;10.636;2023-11-22T04:04:22;6.68;;;4.20;;
37203;SDS011;23098;48.054;10.636;2023-11-22T04:06:48;6.50;;;3.83;;
37203;SDS011;23098;48.054;10.636;2023-11-22T04:09:14;8.07;;;4.57;;
37203;SDS011;23098;48.054;10.636;2023-11-22T04:11:41;6.80;;;3.88;;
37203;SDS011;23098;48.054;10.636;2023-11-22T04:14:07;7.22;;;4.05;;
37203;SDS011;23098;48.054;10.636;2023-11-22T04:16:32;6.40;;;3.88;;
37203;SDS011;23098;48.054;10.636;2023-11-22T04:18:58;7.05;;;4.15;;
37203;SDS011;23098;48.054;10.636;2023-11-22T04:21:23;7.70;;;4.13;;
37203;SDS011;23098;48.054;10.636;2023-11-22T04:23:49;8.35;;;4.55;;
37203;SDS011;23098;48.054;10.636;2023-11-22T04:26:15;6.93;;;3.90;;
37203;SDS011;23098;48.054;10.636;2023-11-22T04:28:40;6.32;;;4.20;;
37203;SDS011;23098;48.054;10.636;2023-11-22T04:31:06;7.45;;;4.50;;
37203;SDS011;23098;48.054;10.636;2023-11-22T04:33:33;7.68;;;4.68;;
37203;SDS011;23098;48.054;10.636;2023-11-22T04:35:59;6.95;;;4.38;;
37203;SDS011;23098;48.054;10.636;2023-11-22T04:38:26;7.28;;;5.00;;
37203;SDS011;23098;48.054;10.636;2023-11-22T04:40:52;7.50;;;4.97;;
37203;SDS011;23098;48.054;10.636;2023-11-22T04:43:18;9.07;;;5.32;;
37203;SDS011;23098;48.054;10.636;2023-11-22T04:45:43;8.15;;;5.00;;
37203;SDS011;23098;48.054;10.636;2023-11-22T04:48:09;8.73;;;5.53;;
37203;SDS011;23098;48.054;10.636;2023-11-22T04:50:36;8.48;;;5.13;;
37203;SDS011;23098;48.054;10.636;2023-11-22T04:53:01;7.20;;;4.55;;
37203;SDS011;23098;48.054;10.636;2023-11-22T04:55:27;7.90;;;5.07;;
37203;SDS011;23098;48.054;10.636;2023-11-22T04:57:53;8.27;;;4.85;;
37203;SDS011;23098;48.054;10.636;2023-11-22T05:00:19;9.38;;;5.28;;
37203;SDS011;23098;48.054;10.636;2023-11-22T05:02:47;8.57;;;4.90;;
37203;SDS011;23098;48.054;10.636;2023-11-22T05:05:13;6.70;;;4.28;;
37203;SDS011;23098;48.054;10.636;2023-11-22T05:07:38;8.52;;;4.63;;
37203;SDS011;23098;48.054;10.636;2023-11-22T05:10:04;8.25;;;4.93;;
37203;SDS011;23098;48.054;10.636;2023-11-22T05:12:31;7.50;;;4.93;;
37203;SDS011;23098;48.054;10.636;2023-11-22T05:14:56;8.95;;;4.43;;
37203;SDS011;23098;48.054;10.636;2023-11-22T05:17:22;9.60;;;5.05;;
37203;SDS011;23098;48.054;10.636;2023-11-22T05:19:48;7.72;;;4.90;;
37203;SDS011;23098;48.054;10.636;2023-11-22T05:22:15;9.13;;;5.53;;
37203;SDS011;23098;48.054;10.636;2023-11-22T05:24:40;8.77;;;4.55;;
37203;SDS011;23098;48.054;10.636;2023-11-22T05:27:06;7.43;;;4.60;;
37203;SDS011;23098;48.054;10.636;2023-11-22T05:29:33;8.40;;;4.95;;
37203;SDS011;23098;48.054;10.636;2023-11-22T05:31:59;10.15;;;6.07;;
37203;SDS011;23098;48.054;10.636;2023-11-22T05:34:25;11.20;;;6.30;;
37203;SDS011;23098;48.054;10.636;2023-11-22T05:36:50;10.05;;;6.13;;
37203;SDS011;23098;48.054;10.636;2023-11-22T05:39:16;9.80;;;4.78;;
37203;SDS011;23098;48.054;10.636;2023-11-22T05:41:42;9.85;;;5.72;;
37203;SDS011;23098;48.054;10.636;2023-11-22T05:44:08;9.70;;;5.80;;
37203;SDS011;23098;48.054;10.636;2023-11-22T05:46:34;10.98;;;5.85;;
37203;SDS011;23098;48.054;10.636;2023-11-22T05:48:59;11.32;;;6.38;;
37203;SDS011;23098;48.054;10.636;2023-11-22T05:51:25;12.77;;;6.25;;
37203;SDS011;23098;48.054;10.636;2023-11-22T05:53:51;11.35;;;5.65;;
37203;SDS011;23098;48.054;10.636;2023-11-22T05:56:16;10.98;;;5.95;;
37203;SDS011;23098;48.054;10.636;2023-11-22T05:58:42;14.02;;;7.22;;
37203;SDS011;23098;48.054;10.636;2023-11-22T06:01:08;15.52;;;8.23;;
37203;SDS011;23098;48.054;10.636;2023-11-22T06:03:34;14.95;;;7.93;;
37203;SDS011;23098;48.054;10.636;2023-11-22T06:06:01;19.33;;;9.45;;
37203;SDS011;23098;48.054;10.636;2023-11-22T06:08:28;17.13;;;9.18;;
37203;SDS011;23098;48.054;10.636;2023-11-22T06:10:54;16.27;;;9.02;;
37203;SDS011;23098;48.054;10.636;2023-11-22T06:13:22;15.02;;;8.02;;
37203;SDS011;23098;48.054;10.636;2023-11-22T06:15:47;16.70;;;8.52;;
37203;SDS011;23098;48.054;10.636;2023-11-22T06:18:13;15.88;;;8.50;;
37203;SDS011;23098;48.054;10.636;2023-11-22T06:20:40;20.52;;;9.50;;
37203;SDS011;23098;48.054;10.636;2023-11-22T06:23:06;17.50;;;9.02;;
37203;SDS011;23098;48.054;10.636;2023-11-22T06:25:31;18.65;;;9.32;;
37203;SDS011;23098;48.054;10.636;2023-11-22T06:27:57;18.08;;;9.40;;
37203;SDS011;23098;48.054;10.636;2023-11-22T06:30:22;16.27;;;8.45;;
37203;SDS011;23098;48.054;10.636;2023-11-22T06:32:49;16.52;;;8.65;;
37203;SDS011;23098;48.054;10.636;2023-11-22T06:35:15;15.32;;;8.70;;
37203;SDS011;23098;48.054;10.636;2023-11-22T06:37:42;17.27;;;8.32;;
37203;SDS011;23098;48.054;10.636;2023-11-22T06:40:08;17.42;;;8.20;;
37203;SDS011;23098;48.054;10.636;2023-11-22T06:42:35;12.73;;;7.03;;
37203;SDS011;23098;48.054;10.636;2023-11-22T06:45:00;15.15;;;6.63;;
37203;SDS011;23098;48.054;10.636;2023-11-22T06:47:27;13.70;;;6.75;;
37203;SDS011;23098;48.054;10.636;2023-11-22T06:49:52;15.43;;;8.48;;
37203;SDS011;23098;48.054;10.636;2023-11-22T06:52:18;15.48;;;7.88;;
37203;SDS011;23098;48.054;10.636;2023-11-22T06:54:44;18.67;;;8.75;;
37203;SDS011;23098;48.054;10.636;2023-11-22T06:57:09;18.38;;;8.75;;
37203;SDS011;23098;48.054;10.636;2023-11-22T06:59:35;14.90;;;7.65;;
37203;SDS011;23098;48.054;10.636;2023-11-22T07:02:00;15.68;;;7.63;;
37203;SDS011;23098;48.054;10.636;2023-11-22T07:04:26;16.20;;;8.27;;
37203;SDS011;23098;48.054;10.636;2023-11-22T07:06:52;16.83;;;7.50;;
37203;SDS011;23098;48.054;10.636;2023-11-22T07:09:18;18.85;;;8.80;;
37203;SDS011;23098;48.054;10.636;2023-11-22T07:11:44;16.50;;;8.15;;
37203;SDS011;23098;48.054;10.636;2023-11-22T07:14:10;16.85;;;8.43;;
37203;SDS011;23098;48.054;10.636;2023-11-22T07:16:35;15.93;;;7.80;;
37203;SDS011;23098;48.054;10.636;2023-11-22T07:19:02;17.27;;;8.68;;
37203;SDS011;23098;48.054;10.636;2023-11-22T07:21:28;19.00;;;8.80;;
37203;SDS011;23098;48.054;10.636;2023-11-22T07:23:55;18.30;;;8.77;;
37203;SDS011;23098;48.054;10.636;2023-11-22T07:26:20;16.77;;;9.27;;
37203;SDS011;23098;48.054;10.636;2023-11-22T07:28:46;19.67;;;9.00;;
37203;SDS011;23098;48.054;10.636;2023-11-22T07:31:12;16.60;;;8.05;;
37203;SDS011;23098;48.054;10.636;2023-11-22T07:33:37;17.38;;;7.57;;
37203;SDS011;23098;48.054;10.636;2023-11-22T07:36:03;17.52;;;8.48;;
37203;SDS011;23098;48.054;10.636;2023-11-22T07:38:29;13.20;;;6.95;;
37203;SDS011;23098;48.054;10.636;2023-11-22T07:40:56;13.80;;;7.30;;
37203;SDS011;23098;48.054;10.636;2023-11-22T07:43:22;12.73;;;6.90;;
37203;SDS011;23098;48.054;10.636;2023-11-22T07:45:47;18.38;;;7.85;;
37203;SDS011;23098;48.054;10.636;2023-11-22T07:48:13;13.15;;;6.95;;
37203;SDS011;23098;48.054;10.636;2023-11-22T07:50:39;18.23;;;7.80;;
37203;SDS011;23098;48.054;10.636;2023-11-22T07:53:08;14.10;;;7.40;;
37203;SDS011;23098;48.054;10.636;2023-11-22T07:55:36;14.57;;;7.55;;
37203;SDS011;23098;48.054;10.636;2023-11-22T07:58:02;13.52;;;7.38;;
37203;SDS011;23098;48.054;10.636;2023-11-22T08:00:31;11.38;;;6.53;;
37203;SDS011;23098;48.054;10.636;2023-11-22T08:02:58;11.02;;;6.35;;
37203;SDS011;23098;48.054;10.636;2023-11-22T08:05:26;12.85;;;7.25;;
37203;SDS011;23098;48.054;10.636;2023-11-22T08:07:53;12.50;;;6.82;;
37203;SDS011;23098;48.054;10.636;2023-11-22T08:10:18;15.07;;;7.25;;
37203;SDS011;23098;48.054;10.636;2023-11-22T08:12:44;13.18;;;7.15;;
37203;SDS011;23098;48.054;10.636;2023-11-22T08:15:15;16.67;;;7.93;;
37203;SDS011;23098;48.054;10.636;2023-11-22T08:17:41;14.90;;;7.22;;
37203;SDS011;23098;48.054;10.636;2023-11-22T08:20:08;12.73;;;6.68;;
37203;SDS011;23098;48.054;10.636;2023-11-22T08:22:39;13.40;;;7.35;;
37203;SDS011;23098;48.054;10.636;2023-11-22T08:25:07;12.65;;;6.93;;
37203;SDS011;23098;48.054;10.636;2023-11-22T08:27:33;15.35;;;7.53;;
37203;SDS011;23098;48.054;10.636;2023-11-22T08:29:59;12.20;;;6.75;;
37203;SDS011;23098;48.054;10.636;2023-11-22T08:32:29;13.00;;;6.53;;
37203;SDS011;23098;48.054;10.636;2023-11-22T08:34:56;14.25;;;7.40;;
37203;SDS011;23098;48.054;10.636;2023-11-22T08:37:21;13.52;;;7.25;;
37203;SDS011;23098;48.054;10.636;2023-11-22T08:39:47;10.70;;;5.95;;
37203;SDS011;23098;48.054;10.636;2023-11-22T08:42:13;8.45;;;4.43;;
37203;SDS011;23098;48.054;10.636;2023-11-22T08:44:39;10.50;;;4.57;;
37203;SDS011;23098;48.054;10.636;2023-11-22T08:47:05;10.93;;;5.97;;
37203;SDS011;23098;48.054;10.636;2023-11-22T08:49:31;14.02;;;7.40;;
37203;SDS011;23098;48.054;10.636;2023-11-22T08:51:58;15.93;;;7.60;;
37203;SDS011;23098;48.054;10.636;2023-11-22T08:54:28;14.07;;;7.78;;
37203;SDS011;23098;48.054;10.636;2023-11-22T08:56:54;11.82;;;7.03;;
37203;SDS011;23098;48.054;10.636;2023-11-22T08:59:23;12.38;;;7.43;;
37203;SDS011;23098;48.054;10.636;2023-11-22T09:01:49;13.10;;;7.38;;
37203;SDS011;23098;48.054;10.636;2023-11-22T09:04:14;13.05;;;7.68;;
37203;SDS011;23098;48.054;10.636;2023-11-22T09:06:41;13.80;;;7.20;;
37203;SDS011;23098;48.054;10.636;2023-11-22T09:09:07;15.00;;;8.43;;
37203;SDS011;23098;48.054;10.636;2023-11-22T09:11:33;13.73;;;8.02;;
37203;SDS011;23098;48.054;10.636;2023-11-22T09:13:59;14.65;;;8.48;;
37203;SDS011;23098;48.054;10.636;2023-11-22T09:16:34;10.63;;;6.68;;
37203;SDS011;23098;48.054;10.636;2023-11-22T09:21:26;11.90;;;7.05;;
37203;SDS011;23098;48.054;10.636;2023-11-22T09:23:52;12.27;;;7.68;;
37203;SDS011;23098;48.054;10.636;2023-11-22T09:26:17;12.85;;;7.20;;
37203;SDS011;23098;48.054;10.636;2023-11-22T09:28:43;14.43;;;7.85;;
37203;SDS011;23098;48.054;10.636;2023-11-22T09:31:09;17.58;;;9.15;;
37203;SDS011;23098;48.054;10.636;2023-11-22T09:33:38;12.20;;;7.78;;
37203;SDS011;23098;48.054;10.636;2023-11-22T09:36:03;13.20;;;7.95;;
37203;SDS011;23098;48.054;10.636;2023-11-22T09:38:29;12.77;;;7.90;;
37203;SDS011;23098;48.054;10.636;2023-11-22T09:40:54;13.65;;;7.90;;
37203;SDS011;23098;48.054;10.636;2023-11-22T09:43:21;13.27;;;7.10;;
37203;SDS011;23098;48.054;10.636;2023-11-22T09:45:49;9.65;;;6.18;;
37203;SDS011;23098;48.054;10.636;2023-11-22T09:48:16;13.57;;;7.15;;
37203;SDS011;23098;48.054;10.636;2023-11-22T09:50:47;11.65;;;7.43;;
37203;SDS011;23098;48.054;10.636;2023-11-22T09:53:21;13.68;;;8.18;;
37203;SDS011;23098;48.054;10.636;2023-11-22T09:55:50;11.73;;;7.70;;
37203;SDS011;23098;48.054;10.636;2023-11-22T09:58:17;12.40;;;6.97;;
37203;SDS011;23098;48.054;10.636;2023-11-22T10:00:46;13.15;;;8.00;;
37203;SDS011;23098;48.054;10.636;2023-11-22T10:03:12;12.02;;;7.80;;
37203;SDS011;23098;48.054;10.636;2023-11-22T10:05:42;15.43;;;8.60;;
37203;SDS011;23098;48.054;10.636;2023-11-22T10:08:08;14.73;;;8.52;;
37203;SDS011;23098;48.054;10.636;2023-11-22T10:10:37;12.63;;;7.65;;
37203;SDS011;23098;48.054;10.636;2023-11-22T10:13:04;13.75;;;7.07;;
37203;SDS011;23098;48.054;10.636;2023-11-22T10:15:30;10.63;;;6.55;;
37203;SDS011;23098;48.054;10.636;2023-11-22T10:17:57;11.60;;;7.00;;
37203;SDS011;23098;48.054;10.636;2023-11-22T10:20:35;10.82;;;6.13;;
37203;SDS011;23098;48.054;10.636;2023-11-22T10:23:02;13.23;;;6.70;;
37203;SDS011;23098;48.054;10.636;2023-11-22T10:25:28;12.90;;;6.82;;
37203;SDS011;23098;48.054;10.636;2023-11-22T10:27:54;10.00;;;7.00;;
37203;SDS011;23098;48.054;10.636;2023-11-22T10:30:20;11.18;;;7.40;;
37203;SDS011;23098;48.054;10.636;2023-11-22T10:32:45;11.45;;;7.22;;
37203;SDS011;23098;48.054;10.636;2023-11-22T10:35:11;9.70;;;6.53;;
37203;SDS011;23098;48.054;10.636;2023-11-22T10:37:41;10.15;;;6.93;;
37203;SDS011;23098;48.054;10.636;2023-11-22T10:40:11;11.10;;;6.72;;
37203;SDS011;23098;48.054;10.636;2023-11-22T10:42:39;10.02;;;6.78;;
37203;SDS011;23098;48.054;10.636;2023-11-22T10:45:06;7.75;;;6.05;;
37203;SDS011;23098;48.054;10.636;2023-11-22T10:47:32;9.25;;;6.28;;
37203;SDS011;23098;48.054;10.636;2023-11-22T10:50:03;9.03;;;6.17;;
37203;SDS011;23098;48.054;10.636;2023-11-22T10:52:29;9.43;;;6.10;;
37203;SDS011;23098;48.054;10.636;2023-11-22T10:54:55;8.50;;;6.22;;
37203;SDS011;23098;48.054;10.636;2023-11-22T10:57:27;9.48;;;6.07;;
37203;SDS011;23098;48.054;10.636;2023-11-22T11:00:03;7.80;;;5.40;;
37203;SDS011;23098;48.054;10.636;2023-11-22T11:02:36;10.13;;;6.15;;
37203;SDS011;23098;48.054;10.636;2023-11-22T11:05:10;10.48;;;6.75;;
37203;SDS011;23098;48.054;10.636;2023-11-22T11:07:43;11.32;;;6.90;;
37203;SDS011;23098;48.054;10.636;2023-11-22T11:10:14;10.18;;;6.50;;
37203;SDS011;23098;48.054;10.636;2023-11-22T11:12:40;12.75;;;7.30;;
37203;SDS011;23098;48.054;10.636;2023-11-22T11:15:06;9.25;;;6.40;;
37203;SDS011;23098;48.054;10.636;2023-11-22T11:17:34;11.20;;;6.53;;
37203;SDS011;23098;48.054;10.636;2023-11-22T11:20:00;10.05;;;7.05;;
37203;SDS011;23098;48.054;10.636;2023-11-22T11:22:29;10.85;;;7.00;;
37203;SDS011;23098;48.054;10.636;2023-11-22T11:25:02;10.48;;;7.03;;
37203;SDS011;23098;48.054;10.636;2023-11-22T11:27:32;10.55;;;6.07;;
37203;SDS011;23098;48.054;10.636;2023-11-22T11:29:58;10.77;;;6.30;;
37203;SDS011;23098;48.054;10.636;2023-11-22T11:32:30;8.70;;;6.22;;
37203;SDS011;23098;48.054;10.636;2023-11-22T11:34:57;10.13;;;6.25;;
37203;SDS011;23098;48.054;10.636;2023-11-22T11:37:25;9.40;;;5.90;;
37203;SDS011;23098;48.054;10.636;2023-11-22T11:39:53;8.73;;;6.00;;
37203;SDS011;23098;48.054;10.636;2023-11-22T11:42:19;9.20;;;5.82;;
37203;SDS011;23098;48.054;10.636;2023-11-22T11:44:52;9.70;;;6.07;;
37203;SDS011;23098;48.054;10.636;2023-11-22T11:47:28;9.80;;;5.72;;
37203;SDS011;23098;48.054;10.636;2023-11-22T11:49:57;7.65;;;5.22;;
37203;SDS011;23098;48.054;10.636;2023-11-22T11:52:24;9.40;;;5.70;;
37203;SDS011;23098;48.054;10.636;2023-11-22T11:54:51;10.65;;;5.70;;
37203;SDS011;23098;48.054;10.636;2023-11-22T11:57:16;9.20;;;6.10;;
37203;SDS011;23098;48.054;10.636;2023-11-22T11:59:42;10.95;;;6.10;;
37203;SDS011;23098;48.054;10.636;2023-11-22T12:02:08;10.18;;;6.50;;
37203;SDS011;23098;48.054;10.636;2023-11-22T12:04:33;9.75;;;6.15;;
37203;SDS011;23098;48.054;10.636;2023-11-22T12:06:59;9.57;;;6.10;;
37203;SDS011;23098;48.054;10.636;2023-11-22T12:09:25;9.00;;;5.93;;
37203;SDS011;23098;48.054;10.636;2023-11-22T12:11:52;9.43;;;6.20;;
37203;SDS011;23098;48.054;10.636;2023-11-22T12:14:19;9.13;;;6.32;;
37203;SDS011;23098;48.054;10.636;2023-11-22T12:16:49;9.65;;;5.97;;
37203;SDS011;23098;48.054;10.636;2023-11-22T12:19:26;9.68;;;6.43;;
37203;SDS011;23098;48.054;10.636;2023-11-22T12:21:53;10.02;;;6.07;;
37203;SDS011;23098;48.054;10.636;2023-11-22T12:24:19;8.05;;;5.70;;
37203;SDS011;23098;48.054;10.636;2023-11-22T12:26:45;10.18;;;6.35;;
37203;SDS011;23098;48.054;10.636;2023-11-22T12:29:13;9.80;;;6.05;;
37203;SDS011;23098;48.054;10.636;2023-11-22T12:31:51;9.00;;;6.10;;
37203;SDS011;23098;48.054;10.636;2023-11-22T12:34:22;12.82;;;6.22;;
37203;SDS011;23098;48.054;10.636;2023-11-22T12:36:50;9.68;;;6.00;;
37203;SDS011;23098;48.054;10.636;2023-11-22T12:39:15;9.75;;;6.10;;
37203;SDS011;23098;48.054;10.636;2023-11-22T12:41:48;8.80;;;5.75;;
37203;SDS011;23098;48.054;10.636;2023-11-22T12:44:18;8.13;;;5.65;;
37203;SDS011;23098;48.054;10.636;2023-11-22T12:49:21;8.93;;;6.05;;
37203;SDS011;23098;48.054;10.636;2023-11-22T12:51:51;10.38;;;6.90;;
37203;SDS011;23098;48.054;10.636;2023-11-22T12:54:18;9.73;;;6.53;;
37203;SDS011;23098;48.054;10.636;2023-11-22T12:56:47;9.85;;;6.45;;
37203;SDS011;23098;48.054;10.636;2023-11-22T12:59:14;11.38;;;6.78;;
37203;SDS011;23098;48.054;10.636;2023-11-22T13:01:39;10.80;;;7.22;;
37203;SDS011;23098;48.054;10.636;2023-11-22T13:04:06;9.52;;;6.57;;
37203;SDS011;23098;48.054;10.636;2023-11-22T13:06:33;13.65;;;7.80;;
37203;SDS011;23098;48.054;10.636;2023-11-22T13:08:59;10.70;;;6.97;;
37203;SDS011;23098;48.054;10.636;2023-11-22T13:11:30;11.98;;;7.28;;
37203;SDS011;23098;48.054;10.636;2023-11-22T13:13:57;9.88;;;6.85;;
37203;SDS011;23098;48.054;10.636;2023-11-22T13:16:23;14.55;;;7.03;;
37203;SDS011;23098;48.054;10.636;2023-11-22T13:18:48;12.88;;;7.30;;
37203;SDS011;23098;48.054;10.636;2023-11-22T13:21:14;12.57;;;7.10;;
37203;SDS011;23098;48.054;10.636;2023-11-22T13:23:39;10.13;;;6.80;;
37203;SDS011;23098;48.054;10.636;2023-11-22T13:26:05;12.63;;;7.30;;
37203;SDS011;23098;48.054;10.636;2023-11-22T13:28:34;9.40;;;6.13;;
37203;SDS011;23098;48.054;10.636;2023-11-22T13:30:59;10.32;;;6.25;;
37203;SDS011;23098;48.054;10.636;2023-11-22T13:33:25;9.75;;;6.18;;
37203;SDS011;23098;48.054;10.636;2023-11-22T13:35:53;11.02;;;6.75;;
37203;SDS011;23098;48.054;10.636;2023-11-22T13:38:18;10.98;;;6.65;;
37203;SDS011;23098;48.054;10.636;2023-11-22T13:40:44;11.73;;;7.10;;
37203;SDS011;23098;48.054;10.636;2023-11-22T13:43:11;11.32;;;6.97;;
37203;SDS011;23098;48.054;10.636;2023-11-22T13:45:38;12.57;;;7.22;;
37203;SDS011;23098;48.054;10.636;2023-11-22T13:48:06;15.15;;;7.70;;
37203;SDS011;23098;48.054;10.636;2023-11-22T13:50:34;11.60;;;7.13;;
37203;SDS011;23098;48.054;10.636;2023-11-22T13:53:00;12.88;;;7.13;;
37203;SDS011;23098;48.054;10.636;2023-11-22T13:55:28;13.18;;;7.90;;
37203;SDS011;23098;48.054;10.636;2023-11-22T13:57:58;10.70;;;6.53;;
37203;SDS011;23098;48.054;10.636;2023-11-22T14:00:26;11.98;;;6.55;;
37203;SDS011;23098;48.054;10.636;2023-11-22T14:02:57;12.95;;;7.35;;
37203;SDS011;23098;48.054;10.636;2023-11-22T14:05:29;12.85;;;8.05;;
37203;SDS011;23098;48.054;10.636;2023-11-22T14:07:55;14.50;;;7.47;;
37203;SDS011;23098;48.054;10.636;2023-11-22T14:10:21;12.70;;;7.20;;
37203;SDS011;23098;48.054;10.636;2023-11-22T14:12:47;13.18;;;7.55;;
37203;SDS011;23098;48.054;10.636;2023-11-22T14:15:14;12.57;;;7.50;;
37203;SDS011;23098;48.054;10.636;2023-11-22T14:17:39;15.45;;;8.05;;
37203;SDS011;23098;48.054;10.636;2023-11-22T14:22:36;34.50;;;14.50;;
37203;SDS011;23098;48.054;10.636;2023-11-22T14:25:02;12.88;;;7.68;;
37203;SDS011;23098;48.054;10.636;2023-11-22T14:27:29;11.13;;;6.88;;